Terminal Aerodrome Forecast
Issued by NWS Mt. Holly, NJ

Home | Current Version | Previous Version | Text Only | Print | Product List | Glossary On
Versions: 1 2 3 4 5 6 7 8 9 10 11 12 13 14 15 16 17 18 19 20 21 22 23 24 25 26 27 28 29 30 31 32 33
000
FTUS41 KPHI 160300 AAC
TAFPHL
TAF AMD
KPHL 160329Z 1603/1706 33015G23KT P6SM -SHRA SCT013 OVC028
      TEMPO 1603/1605 6SM -SHRA OVC013
     FM160500 32020G30KT P6SM SCT030
     FM160800 34015G25KT P6SM FEW050
     FM161800 36012G18KT P6SM SKC
     FM162000 01011KT P6SM SKC=

USA.gov is the U.S. government's official web portal to all federal, state and local government web resources and services.